Time;durP1;ratioP1;P1;durP2;ratioP2;P2;SDS_P1;SDS_P2;PMS_P1;PMS_P2;Temp;Humidity;BMP_temperature;BMP_pressure;BME280_temperature;BME280_humidity;BME280_pressure;Samples;Min_cycle;Max_cycle;Signal;HPM_P1;HPM_P2
2022/05/23 00:01:47;;;;;;;2.75;1.08;;;;;;;18.15;63.87;99670.13;5074457;28;20079;-81
2022/05/23 00:04:13;;;;;;;3.78;1.10;;;;;;;18.34;63.08;99674.19;5073044;28;20086;-81
2022/05/23 00:06:39;;;;;;;2.55;0.90;;;;;;;18.41;62.94;99672.50;5074164;28;20052;-81
2022/05/23 00:09:04;;;;;;;6.95;1.50;;;;;;;18.47;62.84;99660.34;5074353;28;20023;-81
2022/05/23 00:11:30;;;;;;;2.92;1.08;;;;;;;18.20;63.94;99663.28;5074235;28;20107;-81
2022/05/23 00:13:55;;;;;;;6.35;1.50;;;;;;;18.09;64.10;99662.81;5074231;28;20036;-81
2022/05/23 00:16:25;;;;;;;3.45;1.35;;;;;;;18.22;63.75;99655.94;5074101;28;20021;-82
2022/05/23 00:18:50;;;;;;;3.80;1.45;;;;;;;18.33;63.76;99656.59;5069175;28;20090;-81
2022/05/23 00:21:17;;;;;;;6.30;1.70;;;;;;;18.32;63.74;99661.06;5053691;28;20471;-81
2022/05/23 00:23:43;;;;;;;2.90;1.23;;;;;;;18.35;63.70;99662.56;5054101;28;20071;-82
2022/05/23 00:26:11;;;;;;;3.50;1.10;;;;;;;18.20;64.24;99667.75;5053989;28;20021;-82
2022/05/23 00:28:38;;;;;;;3.28;1.35;;;;;;;18.21;64.62;99656.16;5053972;28;20025;-81
2022/05/23 00:31:04;;;;;;;3.22;1.05;;;;;;;18.24;64.14;99653.94;5053838;28;20028;-81
2022/05/23 00:36:14;;;;;;;4.70;1.30;;;;;;;18.30;63.93;99643.66;5053518;28;20106;-82
2022/05/23 00:38:39;;;;;;;1.45;0.80;;;;;;;18.36;64.01;99638.44;5052421;28;20087;-82
2022/05/23 00:44:09;;;;;;;3.65;1.55;;;;;;;18.10;64.67;99636.09;5053883;28;20105;-82
2022/05/23 00:46:34;;;;;;;6.30;1.48;;;;;;;18.13;64.63;99632.28;5053679;28;20535;-82
2022/05/23 00:49:03;;;;;;;5.85;1.20;;;;;;;18.32;64.28;99629.16;5054583;28;20032;-82
2022/05/23 00:51:31;;;;;;;5.65;1.20;;;;;;;18.17;64.69;99609.66;5053484;28;20028;-81
2022/05/23 00:53:59;;;;;;;6.10;1.52;;;;;;;18.19;64.68;99608.50;5053501;28;20027;-80
2022/05/23 00:56:31;;;;;;;3.30;1.30;;;;;;;18.30;64.75;99615.22;5053384;28;20027;-80
2022/05/23 00:59:00;;;;;;;5.45;1.63;;;;;;;18.23;65.21;99612.44;5053390;28;20320;-80
2022/05/23 01:01:29;;;;;;;3.20;1.30;;;;;;;18.20;65.24;99619.94;5053110;28;20033;-80
2022/05/23 01:03:54;;;;;;;10.07;1.60;;;;;;;18.24;64.87;99619.41;5054429;28;20630;-80
2022/05/23 01:06:19;;;;;;;4.05;1.40;;;;;;;18.18;66.25;99611.31;5053395;28;20314;-81
2022/05/23 01:08:47;;;;;;;4.32;1.63;;;;;;;18.16;66.92;99611.47;5053041;28;20032;-81
2022/05/23 01:11:14;;;;;;;4.05;1.65;;;;;;;18.22;66.44;99613.44;5053070;28;20017;-81
2022/05/23 01:13:39;;;;;;;4.57;1.38;;;;;;;18.18;67.36;99603.34;5053117;28;20025;-81
2022/05/23 01:16:05;;;;;;;2.67;1.75;;;;;;;17.98;67.89;99598.44;5053008;28;20028;-81
2022/05/23 01:18:31;;;;;;;3.15;1.70;;;;;;;18.20;67.29;99599.50;5054011;28;20029;-81
2022/05/23 01:20:59;;;;;;;3.38;1.55;;;;;;;18.14;67.22;99602.84;5054018;28;20474;-81
2022/05/23 01:23:37;;;;;;;7.15;1.67;;;;;;;18.20;67.90;99599.50;5052832;28;20060;-81
2022/05/23 01:26:04;;;;;;;3.65;1.27;;;;;;;18.17;67.67;99585.75;5052831;28;20021;-81
2022/05/23 01:28:34;;;;;;;5.75;1.80;;;;;;;18.27;68.21;99593.53;5052729;28;20037;-81
2022/05/23 01:31:00;;;;;;;6.15;1.63;;;;;;;18.15;67.86;99591.25;5052614;28;20143;-81
2022/05/23 01:33:25;;;;;;;2.70;1.40;;;;;;;18.04;68.13;99584.47;5052681;28;20134;-81
2022/05/23 01:35:51;;;;;;;2.58;1.60;;;;;;;17.56;70.85;99586.25;5053624;28;20025;-80
2022/05/23 01:38:16;;;;;;;5.65;1.98;;;;;;;17.80;69.83;99588.00;5052425;28;20027;-81
2022/05/23 01:40:41;;;;;;;1.58;1.40;;;;;;;18.01;69.87;99591.97;5052553;28;20513;-81
2022/05/23 01:43:07;;;;;;;3.38;1.40;;;;;;;17.99;69.18;99591.28;5052529;28;20527;-80
2022/05/23 01:45:37;;;;;;;3.95;1.08;;;;;;;17.55;71.09;99597.03;5052448;28;20056;-81
2022/05/23 01:48:04;;;;;;;4.05;1.45;;;;;;;17.69;69.97;99584.91;5052472;28;20082;-81
2022/05/23 01:50:30;;;;;;;6.40;1.45;;;;;;;17.75;69.63;99585.06;5053242;28;20040;-81
2022/05/23 01:52:58;;;;;;;2.95;1.25;;;;;;;17.82;69.15;99586.03;5052585;28;20170;-81
2022/05/23 01:55:23;;;;;;;3.20;1.27;;;;;;;17.77;68.87;99572.44;5052291;28;20053;-81
2022/05/23 01:57:49;;;;;;;3.53;1.20;;;;;;;17.69;69.37;99585.72;5052145;28;20076;-81
2022/05/23 02:02:58;;;;;;;3.70;1.00;;;;;;;17.60;68.76;99584.09;5052191;28;20036;-80
2022/05/23 02:05:25;;;;;;;1.27;0.88;;;;;;;17.67;68.87;99584.25;5053274;28;20033;-80
2022/05/23 02:07:54;;;;;;;3.58;1.10;;;;;;;17.41;69.29;99577.34;5051663;28;20025;-80
2022/05/23 02:10:20;;;;;;;3.80;0.95;;;;;;;17.63;68.12;99571.31;5050728;28;20379;-80
2022/05/23 02:12:47;;;;;;;6.80;1.30;;;;;;;17.62;68.43;99571.50;5052096;28;20017;-80
2022/05/23 02:15:12;;;;;;;3.53;1.08;;;;;;;17.11;69.88;99565.59;5052078;28;20067;-80
2022/05/23 02:17:38;;;;;;;5.53;1.83;;;;;;;17.09;70.40;99559.66;5053031;28;20550;-80
2022/05/23 02:20:06;;;;;;;2.47;1.13;;;;;;;17.34;70.25;99542.69;5051722;28;20422;-80
2022/05/23 02:22:32;;;;;;;3.00;1.13;;;;;;;17.45;68.90;99546.81;5051359;28;20536;-80
2022/05/23 02:24:57;;;;;;;7.95;1.42;;;;;;;17.55;68.97;99551.91;5051968;28;20025;-80
2022/05/23 02:27:22;;;;;;;6.35;1.35;;;;;;;17.47;69.02;99544.81;5051855;28;20151;-80
2022/05/23 02:29:48;;;;;;;5.63;1.40;;;;;;;17.44;68.83;99551.28;5051837;28;20025;-79
2022/05/23 02:32:14;;;;;;;7.65;1.60;;;;;;;17.30;69.22;99559.94;5053872;28;20017;-81
2022/05/23 02:34:41;;;;;;;6.57;1.42;;;;;;;17.13;69.73;99550.34;5052874;28;20387;-81
2022/05/23 02:37:06;;;;;;;7.40;1.63;;;;;;;17.27;69.65;99541.69;5051475;28;20028;-81
2022/05/23 02:39:32;;;;;;;4.00;1.08;;;;;;;17.39;68.40;99542.19;5051701;28;20031;-81
2022/05/23 02:41:58;;;;;;;4.80;1.63;;;;;;;17.37;69.29;99545.00;5051594;28;20525;-82
2022/05/23 02:44:23;;;;;;;6.05;1.10;;;;;;;17.15;69.60;99541.22;5051810;28;20029;-81
2022/05/23 02:46:49;;;;;;;8.23;1.67;;;;;;;16.96;70.67;99536.28;5050598;28;20060;-82
2022/05/23 02:49:14;;;;;;;8.50;1.48;;;;;;;17.27;69.41;99531.09;5066685;28;20094;-81
2022/05/23 02:51:39;;;;;;;4.80;1.30;;;;;;;17.29;69.59;99530.94;5071080;28;20036;-81
2022/05/23 02:54:06;;;;;;;6.00;1.30;;;;;;;16.90;70.49;99524.50;5071671;28;20024;-81
2022/05/23 02:56:32;;;;;;;5.55;1.80;;;;;;;16.94;70.55;99527.66;5071544;28;20533;-81
2022/05/23 02:58:57;;;;;;;9.43;1.98;;;;;;;16.52;72.40;99518.03;5071039;28;20028;-81
2022/05/23 03:01:23;;;;;;;10.77;1.75;;;;;;;16.79;71.66;99520.34;5071517;28;20082;-81
2022/05/23 03:03:49;;;;;;;8.10;1.75;;;;;;;16.82;71.22;99519.22;5071377;28;20039;-81
2022/05/23 03:06:15;;;;;;;10.23;1.98;;;;;;;16.83;71.24;99523.53;5071573;28;20036;-81
2022/05/23 03:08:41;;;;;;;11.98;2.22;;;;;;;17.02;70.48;99520.53;5071371;28;20503;-81
2022/05/23 03:11:08;;;;;;;9.23;1.50;;;;;;;17.25;69.64;99517.16;5071380;28;20029;-81
2022/05/23 03:13:34;;;;;;;13.15;2.22;;;;;;;16.95;70.36;99506.28;5068441;28;20463;-81
2022/05/23 03:16:00;;;;;;;7.43;1.65;;;;;;;17.10;69.96;99506.44;5071073;28;20470;-81
2022/05/23 03:18:26;;;;;;;9.13;1.77;;;;;;;17.22;69.31;99509.56;5071538;28;20048;-81
2022/05/23 03:20:56;;;;;;;15.20;2.35;;;;;;;17.08;70.16;99507.59;5075162;28;20035;-81
2022/05/23 03:28:49;;;;;;;7.13;1.73;;;;;;;16.98;70.55;99502.47;5066117;28;20530;-81
2022/05/23 03:31:14;;;;;;;10.50;1.80;;;;;;;17.13;69.66;99495.47;5054905;28;20111;-80
2022/05/23 03:33:40;;;;;;;12.13;2.78;;;;;;;16.93;69.87;99500.31;5054874;28;20120;-80
2022/05/23 03:36:08;;;;;;;9.73;1.83;;;;;;;16.93;69.48;99497.66;5054953;28;20025;-80
2022/05/23 03:38:35;;;;;;;11.52;1.95;;;;;;;17.08;69.09;99495.16;5054870;28;20033;-80
2022/05/23 03:41:08;;;;;;;6.13;1.55;;;;;;;17.20;68.86;99495.63;5054497;28;20035;-81
2022/05/23 03:43:33;;;;;;;12.90;1.73;;;;;;;17.09;68.76;99493.34;5063161;28;20047;-81
2022/05/23 03:46:13;;;;;;;8.05;1.73;;;;;;;17.06;68.26;99499.78;5074770;28;20490;-81
2022/05/23 03:48:39;;;;;;;12.45;2.95;;;;;;;17.20;68.13;99499.13;5074601;28;20082;-81
2022/05/23 03:51:06;;;;;;;6.05;1.60;;;;;;;17.19;68.07;99499.28;5074876;28;20029;-81
2022/05/23 03:53:31;;;;;;;9.05;1.98;;;;;;;16.93;69.43;99500.31;5074700;28;20016;-81
2022/05/23 03:55:58;;;;;;;9.30;2.10;;;;;;;16.95;69.29;99493.03;5074353;28;20388;-81
2022/05/23 03:58:25;;;;;;;8.45;2.42;;;;;;;16.75;69.56;99489.88;5072688;28;20036;-82
2022/05/23 04:00:51;;;;;;;10.88;2.00;;;;;;;16.82;69.42;99482.94;5074459;28;20082;-81
2022/05/23 04:03:18;;;;;;;7.95;1.90;;;;;;;17.14;68.46;99486.53;5074439;28;20021;-82
2022/05/23 04:05:44;;;;;;;13.45;3.00;;;;;;;16.82;69.11;99484.75;5074243;28;20036;-81
2022/05/23 04:08:11;;;;;;;9.93;1.70;;;;;;;16.93;69.28;99487.06;5074266;28;20115;-82
2022/05/23 04:10:39;;;;;;;6.07;1.58;;;;;;;16.79;69.29;99479.75;5074372;28;20107;-81
2022/05/23 04:13:04;;;;;;;13.23;2.15;;;;;;;16.73;69.36;99475.94;5068771;28;20088;-82
2022/05/23 04:15:30;;;;;;;9.18;1.92;;;;;;;16.94;68.71;99475.47;5054189;28;20033;-82
2022/05/23 04:17:55;;;;;;;10.00;1.67;;;;;;;17.21;67.95;99473.41;5053166;28;20033;-82
2022/05/23 04:20:21;;;;;;;12.63;2.03;;;;;;;16.80;69.50;99478.75;5054022;28;20033;-82
2022/05/23 04:22:47;;;;;;;6.47;1.70;;;;;;;16.87;69.41;99468.34;5054172;28;20087;-82
2022/05/23 04:25:12;;;;;;;9.63;2.00;;;;;;;17.18;68.39;99465.78;5054072;28;20030;-82
2022/05/23 04:27:37;;;;;;;9.95;2.30;;;;;;;17.18;68.30;99455.16;5056632;28;20485;-82
2022/05/23 04:30:05;;;;;;;10.48;2.35;;;;;;;17.14;68.25;99459.16;5073664;28;20033;-82
2022/05/23 04:35:15;;;;;;;13.05;3.50;;;;;;;16.98;68.42;99463.53;5073980;28;20028;-82
2022/05/23 04:37:45;;;;;;;9.13;2.13;;;;;;;16.92;68.03;99456.22;5073567;28;20036;-82
2022/05/23 04:40:13;;;;;;;6.93;1.88;;;;;;;17.13;67.62;99465.47;5073774;28;20027;-82
2022/05/23 04:42:39;;;;;;;16.30;1.80;;;;;;;16.96;67.93;99462.03;5071845;28;20099;-81
2022/05/23 04:45:05;;;;;;;11.07;2.00;;;;;;;17.18;67.34;99460.47;5073647;28;20032;-81
2022/05/23 04:50:15;;;;;;;9.77;2.38;;;;;;;17.06;67.29;99457.34;5073587;28;20031;-81
2022/05/23 04:52:40;;;;;;;9.02;2.20;;;;;;;16.95;67.46;99442.63;5073158;28;20029;-81
2022/05/23 04:55:06;;;;;;;9.73;2.10;;;;;;;17.08;67.42;99449.22;5073549;28;20413;-82
2022/05/23 04:57:33;;;;;;;10.88;2.85;;;;;;;17.17;66.71;99451.69;5071554;28;20032;-81
2022/05/23 04:59:59;;;;;;;11.23;2.38;;;;;;;17.22;67.28;99448.56;5073323;28;20047;-80
2022/05/23 05:02:25;;;;;;;10.55;2.67;;;;;;;16.99;67.59;99449.25;5073322;28;20470;-81
2022/05/23 05:04:50;;;;;;;7.82;1.95;;;;;;;17.13;67.47;99449.56;5073425;28;20024;-81
2022/05/23 05:07:15;;;;;;;11.13;1.90;;;;;;;17.16;67.05;99451.84;5073010;28;20209;-81
2022/05/23 05:09:41;;;;;;;9.57;2.30;;;;;;;16.97;67.01;99438.00;5073284;28;20386;-81
2022/05/23 05:12:07;;;;;;;14.63;2.13;;;;;;;17.14;66.72;99444.09;5061250;28;20052;-81
2022/05/23 05:14:34;;;;;;;14.90;2.40;;;;;;;17.17;65.86;99448.22;5053001;28;20039;-81
2022/05/23 05:17:00;;;;;;;10.82;2.20;;;;;;;17.03;66.51;99442.63;5052981;28;20021;-81
2022/05/23 05:19:25;;;;;;;10.15;2.00;;;;;;;17.34;65.88;99449.84;5052999;28;20029;-81
2022/05/23 05:21:51;;;;;;;9.57;2.55;;;;;;;17.34;66.27;99454.31;5052933;28;20016;-81
2022/05/23 05:24:17;;;;;;;8.98;1.67;;;;;;;17.30;65.52;99443.22;5052971;28;20057;-81
2022/05/23 05:26:43;;;;;;;16.30;2.90;;;;;;;16.99;66.37;99441.31;5062946;28;20032;-80
2022/05/23 05:29:08;;;;;;;18.20;3.15;;;;;;;17.28;65.61;99434.59;5072829;28;20466;-80
2022/05/23 05:31:40;;;;;;;17.13;2.65;;;;;;;17.44;65.10;99442.50;5072618;28;20024;-80
2022/05/23 05:34:13;;;;;;;10.82;2.40;;;;;;;17.40;65.86;99440.38;5072838;28;20016;-80
2022/05/23 05:36:44;;;;;;;11.52;2.35;;;;;;;16.78;66.62;99439.16;5059828;28;20087;-80
2022/05/23 05:39:12;;;;;;;11.40;2.25;;;;;;;17.30;65.62;99437.06;5063961;28;20104;-80
2022/05/23 05:41:47;;;;;;;17.20;2.97;;;;;;;17.60;64.55;99432.81;5051576;28;20029;-80
2022/05/23 05:44:19;;;;;;;14.98;2.72;;;;;;;17.13;65.94;99426.50;5052416;28;20025;-80
2022/05/23 05:46:48;;;;;;;14.85;2.35;;;;;;;17.65;64.24;99427.78;5052161;28;20438;-81
2022/05/23 05:49:24;;;;;;;9.48;2.05;;;;;;;17.92;63.37;99421.19;5053240;28;20028;-82
2022/05/23 05:51:54;;;;;;;14.95;3.10;;;;;;;17.88;64.04;99419.06;5054395;28;20037;-82
2022/05/23 05:54:25;;;;;;;12.82;2.85;;;;;;;18.13;62.56;99407.28;5060300;28;20020;-81
2022/05/23 05:56:52;;;;;;;10.07;2.42;;;;;;;18.43;62.36;99416.16;5072061;28;20082;-82
2022/05/23 05:59:18;;;;;;;10.40;2.53;;;;;;;18.13;61.95;99411.78;5070678;28;20044;-81
2022/05/23 06:01:44;;;;;;;9.50;2.80;;;;;;;17.87;62.69;99409.44;5060040;28;20490;-81
2022/05/23 06:04:09;;;;;;;9.30;2.53;;;;;;;18.32;61.43;99410.44;5052000;28;20100;-81
2022/05/23 06:12:03;;;;;;;15.60;3.20;;;;;;;18.54;60.24;99409.59;5069369;28;20159;-83
2022/05/23 06:14:29;;;;;;;14.57;3.50;;;;;;;18.53;60.44;99407.94;5071335;28;20472;-83
2022/05/23 06:16:54;;;;;;;17.65;3.88;;;;;;;19.40;58.72;99399.38;5070137;28;20028;-82
2022/05/23 06:19:22;;;;;;;9.98;2.75;;;;;;;19.80;57.26;99399.84;5065355;28;20021;-82
2022/05/23 06:21:48;;;;;;;11.88;3.10;;;;;;;19.47;57.29;99394.16;5052604;28;20021;-83
2022/05/23 06:24:14;;;;;;;12.35;2.75;;;;;;;19.17;58.24;99391.53;5061886;28;20044;-82
2022/05/23 06:26:40;;;;;;;6.90;2.10;;;;;;;19.30;58.88;99382.88;5050944;28;20483;-83
2022/05/23 06:29:06;;;;;;;9.10;2.63;;;;;;;19.71;57.50;99387.69;5055012;28;20041;-83
2022/05/23 06:31:31;;;;;;;10.55;3.13;;;;;;;19.48;57.19;99389.63;5066193;28;20039;-82
2022/05/23 06:33:57;;;;;;;13.27;2.90;;;;;;;19.49;56.99;99380.63;5062883;28;20025;-82
2022/05/23 06:36:22;;;;;;;11.60;2.78;;;;;;;19.09;58.20;99390.78;5051393;28;20064;-82
2022/05/23 06:38:48;;;;;;;15.95;3.63;;;;;;;18.79;58.68;99380.09;5051677;28;20087;-82
2022/05/23 06:41:14;;;;;;;8.73;2.75;;;;;;;19.30;57.79;99380.22;5050977;28;20040;-82
2022/05/23 06:43:42;;;;;;;16.27;4.38;;;;;;;18.98;58.00;99384.91;5051359;28;20104;-82
2022/05/23 06:46:09;;;;;;;11.95;2.60;;;;;;;19.67;56.53;99380.19;5063965;28;20036;-82
2022/05/23 06:48:35;;;;;;;9.85;2.25;;;;;;;20.05;56.23;99375.50;5069481;28;20083;-83
2022/05/23 06:51:01;;;;;;;11.38;2.20;;;;;;;20.71;53.79;99371.75;5067587;28;20028;-83
2022/05/23 06:53:27;;;;;;;10.57;2.22;;;;;;;23.21;48.38;99369.91;5069126;28;20029;-83
2022/05/23 06:55:54;;;;;;;8.80;2.20;;;;;;;24.22;45.12;99370.19;5074264;28;20040;-82
2022/05/23 06:58:21;;;;;;;9.77;2.40;;;;;;;24.59;44.45;99373.00;5061318;28;20111;-83
2022/05/23 07:00:51;;;;;;;9.70;2.13;;;;;;;25.26;43.73;99373.13;5073691;28;20043;-84
2022/05/23 07:03:16;;;;;;;15.70;2.47;;;;;;;24.53;43.75;99363.97;5071292;28;20082;-84
2022/05/23 07:13:56;;;;;;;13.40;2.40;;;;;;;22.00;49.10;99371.03;5072363;28;20104;-83
2022/05/23 07:16:22;;;;;;;8.93;2.78;;;;;;;22.39;48.34;99366.75;5071771;28;20075;-83
2022/05/23 07:18:48;;;;;;;11.18;2.42;;;;;;;21.76;49.65;99362.59;5065388;28;20031;-82
2022/05/23 07:21:15;;;;;;;11.43;2.70;;;;;;;20.95;50.87;99368.63;5073993;28;20406;-83
2022/05/23 07:23:41;;;;;;;9.57;2.42;;;;;;;20.71;51.98;99369.06;5071284;28;20024;-83
2022/05/23 07:26:10;;;;;;;8.75;2.22;;;;;;;20.94;51.25;99366.97;5067523;28;20021;-83
2022/05/23 07:28:36;;;;;;;12.98;2.67;;;;;;;20.63;51.60;99371.91;5073128;28;20303;-82
2022/05/23 07:31:03;;;;;;;11.23;3.00;;;;;;;20.29;53.06;99376.94;5073091;28;20032;-82
2022/05/23 07:33:29;;;;;;;10.57;2.28;;;;;;;21.19;50.79;99367.28;5074424;28;20066;-82
2022/05/23 07:35:56;;;;;;;16.17;2.60;;;;;;;22.10;48.16;99368.78;5072936;28;20043;-82
2022/05/23 07:38:21;;;;;;;7.93;2.55;;;;;;;21.72;49.18;99361.34;5073824;28;20029;-83
2022/05/23 07:40:51;;;;;;;9.73;3.15;;;;;;;20.69;51.08;99360.44;5074410;28;20039;-82
2022/05/23 07:43:16;;;;;;;10.32;2.45;;;;;;;20.67;51.02;99362.47;5074736;28;20044;-82
2022/05/23 07:45:43;;;;;;;10.32;3.20;;;;;;;20.23;51.62;99360.91;5073550;28;20483;-82
2022/05/23 07:48:08;;;;;;;12.07;3.78;;;;;;;21.14;50.03;99352.91;5074753;28;20029;-82
2022/05/23 07:50:34;;;;;;;12.50;3.20;;;;;;;21.17;48.54;99356.00;5074759;28;20368;-82
2022/05/23 08:01:11;;;;;;;9.43;3.38;;;;;;;22.64;46.85;99348.22;5054507;28;20087;-82
2022/05/23 08:03:36;;;;;;;9.63;2.85;;;;;;;24.83;42.54;99337.22;5054342;28;20621;-83
2022/05/23 08:06:02;;;;;;;10.20;3.10;;;;;;;25.39;39.34;99331.81;5052609;28;20525;-82
2022/05/23 08:08:27;;;;;;;10.02;2.58;;;;;;;27.40;37.13;99328.16;5055314;28;20028;-83
2022/05/23 08:10:53;;;;;;;7.28;2.55;;;;;;;27.07;37.97;99332.34;5054534;28;20033;-83
2022/05/23 08:13:18;;;;;;;7.40;2.42;;;;;;;25.62;38.92;99328.41;5052864;28;20065;-83
2022/05/23 08:15:44;;;;;;;5.97;1.92;;;;;;;25.54;39.54;99324.16;5065613;28;20486;-83
2022/05/23 08:18:10;;;;;;;8.43;2.33;;;;;;;24.79;40.34;99313.72;5054980;28;20037;-83
2022/05/23 08:20:38;;;;;;;4.53;1.70;;;;;;;25.15;39.93;99323.63;5061594;28;20413;-83
2022/05/23 08:23:04;;;;;;;6.07;1.80;;;;;;;25.53;39.39;99307.22;5073884;28;20466;-83
2022/05/23 08:25:29;;;;;;;10.60;3.22;;;;;;;26.02;38.64;99311.69;5060931;28;20032;-83
2022/05/23 08:27:54;;;;;;;6.05;1.65;;;;;;;26.80;37.53;99305.13;5072565;28;20028;-82
2022/05/23 08:30:20;;;;;;;8.43;1.55;;;;;;;27.09;36.54;99302.44;5072568;28;20409;-82
2022/05/23 08:32:46;;;;;;;8.27;2.17;;;;;;;27.09;37.39;99300.59;5071247;28;20025;-82
2022/05/23 08:35:12;;;;;;;7.72;2.17;;;;;;;27.48;37.44;99294.59;5073797;28;20020;-82
2022/05/23 08:37:38;;;;;;;7.63;2.40;;;;;;;27.39;36.33;99304.13;5073546;28;20033;-82
2022/05/23 08:40:05;;;;;;;7.22;1.90;;;;;;;28.00;35.63;99302.53;5073826;28;20074;-82
2022/05/23 08:42:39;;;;;;;6.65;2.38;;;;;;;28.87;34.09;99298.38;5073687;28;20048;-82
2022/05/23 08:45:20;;;;;;;11.10;1.70;;;;;;;29.32;34.01;99288.34;5071908;28;20059;-83
2022/05/23 08:48:22;;;;;;;7.38;2.28;;;;;;;27.50;36.07;99293.28;5073442;28;20029;-83
2022/05/23 08:51:14;;;;;;;6.10;1.45;;;;;;;27.02;35.89;99301.78;5073536;28;20033;-82
2022/05/23 08:53:53;;;;;;;3.70;1.48;;;;;;;25.19;38.45;99295.25;5059013;28;20068;-83
2022/05/23 08:56:26;;;;;;;7.55;1.50;;;;;;;24.97;39.01;99297.59;5073142;28;20021;-83
2022/05/23 08:58:55;;;;;;;5.00;1.50;;;;;;;23.60;40.61;99292.22;5073114;28;20480;-85
2022/05/23 09:01:41;;;;;;;5.53;1.85;;;;;;;24.47;41.04;99289.69;5072014;28;20391;-83
2022/05/23 09:04:31;;;;;;;3.47;1.20;;;;;;;24.17;39.99;99292.22;5073123;28;20060;-82
2022/05/23 09:06:59;;;;;;;4.47;1.52;;;;;;;25.20;39.28;99286.16;5072998;28;20043;-82
2022/05/23 09:09:27;;;;;;;7.40;1.52;;;;;;;24.83;39.80;99285.38;5059586;28;20372;-82
2022/05/23 09:12:01;;;;;;;4.78;1.50;;;;;;;24.51;39.92;99283.66;5056047;28;20037;-82
2022/05/23 09:14:26;;;;;;;3.70;1.50;;;;;;;23.92;40.43;99274.31;5073254;28;20129;-82
2022/05/23 09:16:54;;;;;;;6.45;2.40;;;;;;;23.60;41.57;99271.63;5071123;28;20107;-83
2022/05/23 09:19:42;;;;;;;4.75;2.30;;;;;;;22.83;42.69;99276.94;5070605;28;20021;-81
2022/05/23 09:22:12;;;;;;;11.10;2.17;;;;;;;23.73;41.61;99276.88;5072627;28;20115;-83
2022/05/23 09:24:53;;;;;;;6.32;1.75;;;;;;;23.93;41.51;99266.03;5072789;28;20032;-82
2022/05/23 09:27:35;;;;;;;7.68;2.13;;;;;;;22.45;43.24;99264.28;5072470;28;20032;-81
2022/05/23 09:30:02;;;;;;;4.43;1.90;;;;;;;23.13;42.50;99271.09;5072728;28;20111;-82
2022/05/23 09:32:51;;;;;;;4.03;1.77;;;;;;;23.30;43.19;99258.84;5071887;28;20115;-82
2022/05/23 09:35:42;;;;;;;7.03;2.13;;;;;;;23.36;42.10;99260.66;5068563;28;20100;-81
2022/05/23 09:38:23;;;;;;;3.78;1.55;;;;;;;23.54;41.70;99251.06;5065470;28;20041;-81
2022/05/23 09:40:50;;;;;;;5.95;2.15;;;;;;;22.36;44.21;99254.88;5057320;28;20032;-81
2022/05/23 09:49:06;;;;;;;5.20;2.22;;;;;;;22.55;45.09;99243.28;5072244;28;20036;-81
2022/05/23 09:51:46;;;;;;;7.88;2.75;;;;;;;22.56;44.18;99244.91;5070894;28;20051;-82
2022/05/23 09:54:17;;;;;;;4.85;2.10;;;;;;;22.83;44.47;99234.13;5070300;28;20471;-82
2022/05/23 09:56:42;;;;;;;4.57;2.13;;;;;;;22.40;44.91;99229.34;5071891;28;20521;-83
2022/05/23 09:59:19;;;;;;;8.45;3.30;;;;;;;22.36;45.00;99233.47;5071911;28;20120;-81
2022/05/23 10:01:45;;;;;;;5.40;1.83;;;;;;;23.22;44.08;99232.28;5071883;28;20024;-83
2022/05/23 10:04:16;;;;;;;7.57;1.95;;;;;;;23.31;43.53;99236.38;5072286;28;20027;-82
2022/05/23 10:06:48;;;;;;;3.57;1.90;;;;;;;23.35;43.05;99236.75;5071117;28;20274;-81
2022/05/23 10:09:35;;;;;;;5.05;1.75;;;;;;;22.17;44.57;99241.28;5066640;28;20506;-82
2022/05/23 10:12:06;;;;;;;4.88;2.03;;;;;;;22.37;45.37;99243.13;5069972;28;20060;-81
2022/05/23 10:14:51;;;;;;;4.70;1.83;;;;;;;22.60;45.38;99239.16;5070379;28;20070;-81
2022/05/23 10:17:38;;;;;;;6.90;2.13;;;;;;;22.09;45.41;99243.34;5062806;28;20029;-82
2022/05/23 10:20:27;;;;;;;6.40;1.67;;;;;;;22.16;45.03;99236.97;5068153;28;20036;-82
2022/05/23 10:22:57;;;;;;;10.05;4.22;;;;;;;22.09;45.34;99230.00;5071128;28;20024;-82
2022/05/23 10:25:24;;;;;;;6.53;2.03;;;;;;;21.71;47.20;99236.78;5068683;28;20032;-81
2022/05/23 10:27:59;;;;;;;5.32;1.80;;;;;;;22.29;44.98;99233.47;5054562;28;20025;-82
2022/05/23 10:30:30;;;;;;;6.93;2.15;;;;;;;22.10;45.77;99235.13;5051544;28;20021;-82
2022/05/23 10:33:08;;;;;;;4.97;1.75;;;;;;;22.93;44.11;99222.97;5058179;28;20032;-82
2022/05/23 10:35:56;;;;;;;7.05;1.60;;;;;;;23.43;42.65;99233.81;5070023;28;20021;-82
2022/05/23 10:44:27;;;;;;;7.45;1.75;;;;;;;22.48;45.23;99237.13;5071765;28;20419;-82
2022/05/23 10:47:38;;;;;;;6.35;1.83;;;;;;;23.02;44.78;99234.25;5067444;28;20033;-82
2022/05/23 10:50:31;;;;;;;11.15;1.85;;;;;;;21.68;48.17;99245.22;5067342;28;20068;-82
2022/05/23 10:53:15;;;;;;;7.45;1.73;;;;;;;22.31;46.29;99235.94;5070221;28;20021;-82
2022/05/23 10:56:11;;;;;;;6.07;1.65;;;;;;;21.72;47.62;99238.44;5071746;28;20028;-82
2022/05/23 10:58:48;;;;;;;13.02;2.22;;;;;;;22.12;47.55;99234.94;5071317;28;20071;-81
2022/05/23 11:01:13;;;;;;;7.45;1.40;;;;;;;22.16;46.85;99236.97;5062442;28;20096;-82
2022/05/23 11:04:06;;;;;;;4.80;1.23;;;;;;;21.68;45.86;99236.38;5062194;28;20086;-82
2022/05/23 11:06:57;;;;;;;9.05;1.10;;;;;;;22.53;45.77;99223.97;5071547;28;20033;-82
2022/05/23 11:09:55;;;;;;;3.40;0.90;;;;;;;22.53;44.96;99226.63;5071439;28;20467;-82
2022/05/23 11:12:38;;;;;;;5.07;1.70;;;;;;;22.65;44.42;99233.97;5071453;28;20029;-82
2022/05/23 11:15:16;;;;;;;5.53;1.08;;;;;;;22.32;44.81;99242.94;5069852;28;20475;-81
2022/05/23 11:18:07;;;;;;;4.90;1.13;;;;;;;22.50;44.87;99234.25;5051296;28;20037;-82
2022/05/23 11:20:36;;;;;;;5.68;0.52;;;;;;;21.96;45.26;99233.50;5065882;28;20032;-81
2022/05/23 11:23:25;;;;;;;2.80;1.00;;;;;;;21.50;45.96;99231.63;5071093;28;20070;-81
2022/05/23 11:26:03;;;;;;;5.80;0.90;;;;;;;21.72;46.00;99227.75;5071720;28;20033;-82
2022/05/23 11:34:31;;;;;;;3.83;1.17;;;;;;;21.38;47.57;99229.53;5051847;28;20140;-82
2022/05/23 11:39:49;;;;;;;3.40;1.33;;;;;;;22.17;46.06;99217.22;5051451;28;20036;-82
2022/05/23 11:42:17;;;;;;;6.00;1.00;;;;;;;22.34;45.06;99217.63;5054959;28;20442;-82
2022/05/23 11:44:42;;;;;;;3.35;1.02;;;;;;;21.48;47.43;99215.00;5055825;28;20028;-81
2022/05/23 11:47:11;;;;;;;3.42;0.77;;;;;;;22.02;46.88;99211.31;5070020;28;20120;-82
2022/05/23 11:49:46;;;;;;;6.07;1.00;;;;;;;22.94;45.33;99209.34;5054895;28;20029;-81
2022/05/23 11:52:24;;;;;;;8.00;1.40;;;;;;;22.90;45.19;99218.84;5054634;28;20103;-82
2022/05/23 11:54:51;;;;;;;4.00;0.70;;;;;;;22.63;45.67;99211.97;5054825;28;20482;-82
2022/05/23 11:57:28;;;;;;;4.13;0.73;;;;;;;23.19;44.45;99216.66;5054453;28;20108;-82
2022/05/23 11:59:57;;;;;;;13.85;1.60;;;;;;;23.06;43.69;99206.84;5055469;28;20032;-82
2022/05/23 12:02:26;;;;;;;7.53;0.80;;;;;;;22.70;44.77;99223.47;5066904;28;20024;-82
2022/05/23 12:04:52;;;;;;;5.50;0.70;;;;;;;22.58;45.46;99224.13;5074345;28;20104;-82
2022/05/23 12:07:43;;;;;;;6.82;0.80;;;;;;;22.50;44.93;99224.38;5072981;28;20029;-82
2022/05/23 12:10:28;;;;;;;3.55;0.85;;;;;;;22.17;45.88;99230.56;5074237;28;20098;-82
2022/05/23 12:12:59;;;;;;;4.93;1.00;;;;;;;22.61;46.03;99220.22;5074348;28;20386;-82
2022/05/23 12:15:43;;;;;;;2.67;0.75;;;;;;;22.52;45.21;99232.19;5065533;28;20029;-82
2022/05/23 12:18:21;;;;;;;5.00;0.70;;;;;;;22.23;45.15;99228.94;5054142;28;20029;-82
2022/05/23 12:21:08;;;;;;;7.05;0.90;;;;;;;23.20;43.42;99223.66;5054146;28;20085;-82
2022/05/23 12:23:39;;;;;;;6.47;1.10;;;;;;;23.49;41.96;99221.41;5052784;28;20395;-82
2022/05/23 12:26:19;;;;;;;3.55;0.68;;;;;;;23.23;43.62;99220.56;5054228;28;20525;-82
2022/05/23 12:28:50;;;;;;;6.57;0.95;;;;;;;24.12;42.42;99210.56;5053914;28;20036;-82
2022/05/23 12:31:27;;;;;;;5.38;0.88;;;;;;;23.86;41.48;99208.16;5066422;28;20419;-82
2022/05/23 12:34:09;;;;;;;3.13;0.68;;;;;;;24.58;41.85;99204.94;5071861;28;20394;-82
2022/05/23 12:36:48;;;;;;;6.07;0.90;;;;;;;24.42;41.89;99198.31;5073792;28;20501;-82
2022/05/23 12:39:20;;;;;;;5.38;1.10;;;;;;;23.94;41.17;99202.53;5073973;28;20032;-82
2022/05/23 12:41:51;;;;;;;3.05;1.05;;;;;;;23.82;42.85;99197.06;5073782;28;20104;-82
2022/05/23 12:44:26;;;;;;;3.00;0.60;;;;;;;23.24;42.99;99192.72;5072257;28;20032;-82
2022/05/23 12:47:04;;;;;;;2.03;0.47;;;;;;;23.18;43.36;99177.53;5073707;28;20024;-82